createdAt,value
2022-09-06T00:00:15.097Z,61.17
2022-09-06T00:03:30.553Z,61.85
2022-09-06T00:06:33.178Z,62.75
2022-09-06T00:09:35.875Z,59.89
2022-09-06T00:12:38.437Z,58.31
2022-09-06T00:15:41.155Z,58.66
2022-09-06T00:18:44.333Z,60.74
2022-09-06T00:21:46.868Z,61.73
2022-09-06T00:24:49.508Z,62.10
2022-09-06T00:27:55.117Z,62.61
2022-09-06T00:30:57.746Z,60.36
2022-09-06T00:34:00.384Z,57.67
2022-09-06T00:37:03.183Z,58.86
2022-09-06T00:40:07.302Z,60.39
2022-09-06T00:43:09.972Z,61.12
2022-09-06T00:46:15.440Z,62.47
2022-09-06T00:49:23.798Z,61.11
2022-09-06T00:52:27.083Z,60.37
2022-09-06T00:55:29.614Z,57.68
2022-09-06T00:58:32.328Z,59.82
2022-09-06T01:01:35.347Z,61.41
2022-09-06T01:04:38.929Z,62.44
2022-09-06T01:07:51.326Z,63.17
2022-09-06T01:11:14.789Z,58.61
2022-09-06T01:14:22.025Z,58.28
2022-09-06T01:17:32.412Z,60.11
2022-09-06T01:20:45.305Z,61.62
2022-09-06T01:24:08.480Z,62.38
2022-09-06T01:27:34.604Z,60.19
2022-09-06T01:30:41.534Z,57.93
2022-09-06T01:33:48.406Z,59.25
2022-09-06T01:37:08.959Z,60.43
2022-09-06T01:40:12.834Z,61.98
2022-09-06T01:43:20.412Z,63.22
2022-09-06T01:46:27.397Z,61.49
2022-09-06T01:49:41.706Z,58.33
2022-09-06T01:52:50.311Z,59.18
2022-09-06T01:55:58.102Z,61.31
2022-09-06T01:59:11.552Z,62.62
2022-09-06T02:02:19.020Z,64.69
2022-09-06T02:05:26.011Z,61.51
2022-09-06T02:08:31.057Z,58.39
2022-09-06T02:11:37.806Z,60.07
2022-09-06T02:14:43.605Z,60.43
2022-09-06T02:17:50.218Z,63.55
2022-09-06T02:20:54.852Z,61.64
2022-09-06T02:23:59.068Z,61.32
2022-09-06T02:27:01.800Z,58.26
2022-09-06T02:30:05.281Z,59.21
2022-09-06T02:33:10.706Z,61.57
2022-09-06T02:36:14.029Z,63.33
2022-09-06T02:39:16.605Z,61.49
2022-09-06T02:42:19.369Z,59.39
2022-09-06T02:45:21.897Z,58.51
2022-09-06T02:48:24.858Z,60.66
2022-09-06T02:51:27.502Z,63.24
2022-09-06T02:54:30.711Z,62.14
2022-09-06T02:57:33.236Z,59.95
2022-09-06T03:00:36.856Z,58.62
2022-09-06T03:03:39.525Z,60.40
2022-09-06T03:06:42.217Z,63.12
2022-09-06T03:09:44.782Z,62.51
2022-09-06T03:12:47.621Z,61.12
2022-09-06T03:15:51.404Z,59.71
2022-09-06T03:18:53.956Z,58.82
2022-09-06T03:21:56.627Z,59.65
2022-09-06T03:24:59.156Z,62.11
2022-09-06T03:28:02.212Z,63.08
2022-09-06T03:31:04.943Z,64.13
2022-09-06T03:34:10.995Z,60.75
2022-09-06T03:37:13.830Z,59.36
2022-09-06T03:40:16.455Z,57.91
2022-09-06T03:43:20.091Z,57.54
2022-09-06T03:46:22.870Z,60.75
2022-09-06T03:49:25.435Z,62.48
2022-09-06T03:52:28.019Z,63.57
2022-09-06T03:55:30.863Z,62.53
2022-09-06T03:58:33.462Z,64.17
2022-09-06T04:01:36.172Z,62.38
2022-09-06T04:04:38.732Z,61.80
2022-09-06T04:07:42.449Z,57.12
2022-09-06T04:10:44.993Z,56.05
2022-09-06T04:13:48.151Z,57.24
2022-09-06T04:16:50.729Z,59.44
2022-09-06T04:19:53.357Z,61.16
2022-09-06T04:22:55.866Z,64.19
2022-09-06T04:25:58.985Z,64.91
2022-09-06T04:29:01.716Z,64.57
2022-09-06T04:32:04.305Z,60.13
2022-09-06T04:35:08.370Z,57.86
2022-09-06T04:38:11.020Z,57.06
2022-09-06T04:41:15.308Z,60.78
2022-09-06T04:44:18.418Z,60.31
2022-09-06T04:47:20.978Z,60.50
2022-09-06T04:50:23.523Z,61.73
2022-09-06T04:53:26.175Z,63.31
2022-09-06T04:56:29.588Z,62.84
2022-09-06T04:59:32.538Z,56.60
2022-09-06T05:02:35.117Z,55.73
2022-09-06T05:05:37.876Z,56.85
2022-09-06T05:08:41.020Z,58.94
2022-09-06T05:11:43.747Z,58.22
2022-09-06T05:14:46.339Z,60.25
2022-09-06T05:17:49.165Z,58.66
2022-09-06T05:20:52.551Z,61.29
2022-09-06T05:23:58.465Z,61.88
2022-09-06T05:27:03.794Z,62.20
2022-09-06T05:30:07.415Z,63.43
2022-09-06T05:33:10.374Z,60.50
2022-09-06T05:36:12.940Z,60.08
2022-09-06T05:39:15.479Z,57.39
2022-09-06T05:42:19.412Z,58.05
2022-09-06T05:45:22.398Z,58.86
2022-09-06T05:48:25.214Z,60.22
2022-09-06T05:51:27.919Z,61.94
2022-09-06T05:54:30.513Z,62.26
2022-09-06T05:57:33.142Z,64.67
2022-09-06T06:00:36.265Z,58.90
2022-09-06T06:03:38.963Z,57.40
2022-09-06T06:06:41.617Z,55.17
2022-09-06T06:09:44.218Z,56.89
2022-09-06T06:12:46.744Z,57.21
2022-09-06T06:15:49.492Z,58.11
2022-09-06T06:18:52.854Z,59.30
2022-09-06T06:21:57.897Z,57.77
2022-09-06T06:25:00.439Z,60.33
2022-09-06T06:28:03.515Z,59.84
2022-09-06T06:31:06.905Z,59.16
2022-09-06T06:34:09.506Z,59.60
2022-09-06T06:37:15.477Z,61.04
2022-09-06T06:40:25.079Z,61.06
2022-09-06T06:43:35.615Z,60.51
2022-09-06T06:46:38.330Z,60.55
2022-09-06T06:49:40.982Z,60.31
2022-09-06T06:52:43.595Z,60.59
2022-09-06T06:55:47.860Z,60.43
2022-09-06T06:58:52.050Z,60.32
2022-09-06T07:08:41.000Z,58.89
2022-09-06T07:11:43.683Z,58.75
2022-09-06T07:14:46.348Z,59.05
2022-09-06T07:17:48.920Z,58.46
2022-09-06T07:24:14.301Z,57.56
2022-09-06T07:30:39.498Z,57.49
2022-09-06T07:33:42.068Z,56.85
2022-09-06T07:36:44.611Z,56.25
2022-09-06T07:39:47.530Z,55.89
2022-09-06T07:42:50.271Z,55.20
2022-09-06T07:46:03.165Z,54.71
2022-09-06T07:49:06.098Z,54.02
2022-09-06T07:55:31.215Z,54.15
2022-09-06T07:58:34.105Z,53.51
2022-09-06T08:01:37.097Z,52.61
2022-09-06T08:04:40.534Z,52.07
2022-09-06T08:07:43.179Z,51.41
2022-09-06T08:10:50.544Z,51.22
2022-09-06T08:13:55.028Z,51.16
2022-09-06T08:16:58.078Z,50.94
2022-09-06T08:20:00.522Z,49.60
2022-09-06T08:23:08.934Z,48.44
2022-09-06T08:26:11.605Z,48.63
2022-09-06T08:29:14.286Z,48.28
2022-09-06T08:32:18.789Z,48.42
2022-09-06T08:35:21.326Z,48.20
2022-09-06T08:38:24.206Z,46.86
2022-09-06T08:41:27.557Z,47.64
2022-09-06T08:47:57.263Z,46.97
2022-09-06T08:51:03.699Z,46.43
2022-09-06T08:54:11.046Z,46.84
2022-09-06T08:57:20.867Z,46.91
2022-09-06T09:00:23.567Z,46.61
2022-09-06T09:03:31.055Z,46.12
2022-09-06T09:06:34.433Z,46.25
2022-09-06T09:09:37.086Z,45.88
2022-09-06T09:12:43.986Z,45.95
2022-09-06T09:15:46.627Z,45.59
2022-09-06T09:18:51.141Z,43.25
2022-09-06T09:21:54.229Z,43.55
2022-09-06T09:24:58.897Z,43.68
2022-09-06T09:28:02.206Z,44.00
2022-09-06T09:31:07.166Z,44.10
2022-09-06T09:34:13.701Z,42.73
2022-09-06T09:40:49.313Z,42.67
2022-09-06T09:43:59.194Z,42.48
2022-09-06T09:47:21.935Z,42.47
2022-09-06T09:50:27.150Z,42.11
2022-09-06T09:53:29.734Z,41.56
2022-09-06T09:56:37.592Z,41.38
2022-09-06T09:59:42.874Z,40.22
2022-09-06T10:02:45.526Z,40.35
2022-09-06T10:06:02.048Z,37.65
2022-09-06T10:09:29.459Z,37.62
2022-09-06T10:12:32.874Z,37.85
2022-09-06T10:15:36.363Z,38.40
2022-09-06T10:18:40.332Z,37.98
2022-09-06T10:21:42.909Z,37.80
2022-09-06T10:24:51.650Z,36.84
2022-09-06T10:28:12.647Z,36.90
2022-09-06T10:31:25.624Z,36.58
2022-09-06T10:34:43.642Z,36.49
2022-09-06T10:37:50.600Z,35.03
2022-09-06T10:40:58.312Z,35.28
2022-09-06T10:44:06.211Z,34.51
2022-09-06T10:47:10.987Z,34.52
2022-09-06T10:50:14.399Z,34.79
2022-09-06T10:53:24.626Z,34.90
2022-09-06T10:56:31.531Z,34.93
2022-09-06T10:59:36.595Z,35.29
2022-09-06T11:02:43.985Z,35.12
2022-09-06T11:05:49.374Z,34.73
2022-09-06T11:08:58.100Z,34.57
2022-09-06T11:12:06.977Z,34.45
2022-09-06T11:15:11.667Z,34.29
2022-09-06T11:18:18.176Z,34.17
2022-09-06T11:21:35.199Z,34.19
2022-09-06T11:24:47.868Z,31.79
2022-09-06T11:27:57.305Z,32.17
2022-09-06T11:31:01.231Z,31.92
2022-09-06T11:34:06.103Z,33.02
2022-09-06T11:37:21.506Z,32.50
2022-09-06T11:40:27.518Z,31.86
2022-09-06T11:43:45.715Z,32.23
2022-09-06T11:46:58.840Z,31.82
2022-09-06T11:50:17.802Z,31.39
2022-09-06T11:53:21.104Z,31.09
2022-09-06T11:56:28.254Z,31.25
2022-09-06T11:59:35.469Z,31.00
2022-09-06T12:02:41.221Z,31.05
2022-09-06T12:05:58.753Z,29.83
2022-09-06T12:09:02.213Z,30.25
2022-09-06T12:12:05.825Z,30.67
2022-09-06T12:15:25.797Z,29.70
2022-09-06T12:18:52.084Z,30.39
2022-09-06T12:21:54.791Z,29.63
2022-09-06T12:24:59.183Z,30.55
2022-09-06T12:28:02.716Z,30.77
2022-09-06T12:31:23.278Z,30.64
2022-09-06T12:34:28.447Z,31.41
2022-09-06T12:37:36.737Z,30.64
2022-09-06T12:40:40.966Z,31.17
2022-09-06T12:43:43.768Z,31.22
2022-09-06T12:46:47.692Z,30.32
2022-09-06T12:50:04.653Z,30.78
2022-09-06T12:53:23.392Z,30.58
2022-09-06T12:56:27.548Z,30.55
2022-09-06T12:59:31.863Z,30.26
2022-09-06T13:02:37.284Z,30.66
2022-09-06T13:05:40.702Z,30.95
2022-09-06T13:08:47.002Z,30.99
2022-09-06T13:11:50.770Z,30.81
2022-09-06T13:14:54.761Z,30.51
2022-09-06T13:18:11.611Z,30.82
2022-09-06T13:21:23.820Z,31.25
2022-09-06T13:24:27.869Z,31.57
2022-09-06T13:27:35.007Z,31.94
2022-09-06T13:30:41.237Z,31.94
2022-09-06T13:33:44.662Z,31.99
2022-09-06T13:36:49.311Z,32.13
2022-09-06T13:39:52.382Z,31.90
2022-09-06T13:43:00.265Z,31.94
2022-09-06T13:46:06.792Z,32.01
2022-09-06T13:49:09.355Z,31.95
2022-09-06T13:52:12.061Z,31.11
2022-09-06T13:55:16.016Z,31.22
2022-09-06T13:58:18.652Z,31.57
2022-09-06T14:01:21.330Z,31.46
2022-09-06T14:04:24.871Z,31.92
2022-09-06T14:07:27.586Z,32.22
2022-09-06T14:10:30.166Z,32.42
2022-09-06T14:13:32.735Z,32.39
2022-09-06T14:16:35.525Z,32.52
2022-09-06T14:19:39.967Z,32.73
2022-09-06T14:22:42.582Z,32.43
2022-09-06T14:25:45.117Z,31.91
2022-09-06T14:28:47.847Z,32.36
2022-09-06T14:31:50.419Z,32.71
2022-09-06T14:34:53.054Z,32.48
2022-09-06T14:37:55.609Z,32.72
2022-09-06T14:41:03.276Z,32.95
2022-09-06T14:44:05.855Z,33.17
2022-09-06T14:47:08.465Z,33.27
2022-09-06T14:50:11.274Z,33.26
2022-09-06T14:53:38.802Z,33.30
2022-09-06T14:56:39.972Z,33.07
2022-09-06T14:59:42.622Z,33.30
2022-09-06T15:02:45.296Z,33.36
2022-09-06T15:05:48.395Z,33.61
2022-09-06T15:08:52.839Z,33.65
2022-09-06T15:11:58.403Z,33.80
2022-09-06T15:15:02.262Z,33.91
2022-09-06T15:18:04.991Z,34.10
2022-09-06T15:21:11.123Z,34.12
2022-09-06T15:24:14.097Z,34.18
2022-09-06T15:27:16.795Z,34.37
2022-09-06T15:30:19.409Z,34.33
2022-09-06T15:33:22.078Z,34.32
2022-09-06T15:36:24.872Z,34.38
2022-09-06T15:39:27.566Z,34.42
2022-09-06T15:42:30.346Z,34.59
2022-09-06T15:45:46.653Z,34.62
2022-09-06T15:48:50.509Z,34.63
2022-09-06T15:51:53.479Z,34.55
2022-09-06T15:55:14.898Z,34.62
2022-09-06T15:58:17.704Z,34.63
2022-09-06T16:01:21.161Z,34.76
2022-09-06T16:04:23.891Z,34.85
2022-09-06T16:07:27.090Z,34.85
2022-09-06T16:10:29.779Z,35.07
2022-09-06T16:13:33.260Z,35.13
2022-09-06T16:16:36.616Z,35.31
2022-09-06T16:19:39.642Z,35.41
2022-09-06T16:22:42.224Z,35.55
2022-09-06T16:25:47.371Z,35.74
2022-09-06T16:28:51.122Z,35.74
2022-09-06T16:31:59.041Z,35.87
2022-09-06T16:35:03.258Z,36.13
2022-09-06T16:38:09.089Z,36.22
2022-09-06T16:41:13.765Z,36.23
2022-09-06T16:44:17.540Z,36.45
2022-09-06T16:47:20.372Z,36.39
2022-09-06T16:50:22.953Z,36.63
2022-09-06T16:53:25.635Z,36.82
2022-09-06T16:56:31.188Z,37.42
2022-09-06T16:59:33.770Z,37.29
2022-09-06T17:02:36.513Z,37.57
2022-09-06T17:05:39.434Z,37.91
2022-09-06T17:08:42.127Z,38.32
2022-09-06T17:11:45.834Z,38.60
2022-09-06T17:14:48.670Z,38.85
2022-09-06T17:17:51.237Z,39.41
2022-09-06T17:20:57.529Z,39.89
2022-09-06T17:24:02.422Z,40.34
2022-09-06T17:27:05.319Z,40.82
2022-09-06T17:30:09.665Z,40.88
2022-09-06T17:33:12.870Z,40.92
2022-09-06T17:36:17.063Z,41.08
2022-09-06T17:39:20.457Z,41.77
2022-09-06T17:42:24.144Z,41.45
2022-09-06T17:45:26.864Z,42.20
2022-09-06T17:48:30.382Z,42.53
2022-09-06T17:51:33.601Z,42.57
2022-09-06T17:54:36.775Z,43.22
2022-09-06T17:57:39.531Z,43.42
2022-09-06T18:00:42.218Z,44.11
2022-09-06T18:03:45.628Z,43.89
2022-09-06T18:06:48.249Z,43.54
2022-09-06T18:09:51.164Z,43.73
2022-09-06T18:12:53.939Z,44.52
2022-09-06T18:15:56.569Z,44.78
2022-09-06T18:19:00.201Z,45.42
2022-09-06T18:22:04.022Z,45.17
2022-09-06T18:25:08.352Z,45.84
2022-09-06T18:28:11.050Z,46.52
2022-09-06T18:31:14.534Z,46.53
2022-09-06T18:34:17.985Z,46.61
2022-09-06T18:37:20.702Z,46.94
2022-09-06T18:40:23.345Z,46.92
2022-09-06T18:43:28.906Z,47.10
2022-09-06T18:46:32.561Z,46.92
2022-09-06T18:49:35.558Z,47.06
2022-09-06T18:52:38.163Z,47.73
2022-09-06T18:55:42.086Z,47.85
2022-09-06T18:58:44.780Z,47.77
2022-09-06T19:01:47.525Z,48.06
2022-09-06T19:04:53.550Z,48.42
2022-09-06T19:07:56.266Z,48.50
2022-09-06T19:11:00.771Z,48.59
2022-09-06T19:14:04.171Z,49.24
2022-09-06T19:17:07.008Z,49.42
2022-09-06T19:20:10.223Z,49.08
2022-09-06T19:23:12.819Z,49.58
2022-09-06T19:26:17.217Z,49.49
2022-09-06T19:29:19.862Z,49.67
2022-09-06T19:32:22.487Z,49.32
2022-09-06T19:35:25.045Z,49.55
2022-09-06T19:38:27.899Z,49.80
2022-09-06T19:41:36.032Z,49.52
2022-09-06T19:44:38.759Z,49.94
2022-09-06T19:47:41.349Z,49.39
2022-09-06T19:50:43.992Z,49.58
2022-09-06T19:53:49.349Z,49.74
2022-09-06T19:56:52.283Z,50.00
2022-09-06T19:59:55.004Z,49.87
2022-09-06T20:02:57.641Z,49.79
2022-09-06T20:06:01.186Z,50.34
2022-09-06T20:09:05.749Z,50.33
2022-09-06T20:12:08.975Z,50.90
2022-09-06T20:15:11.760Z,50.59
2022-09-06T20:18:14.685Z,51.14
2022-09-06T20:21:17.891Z,51.38
2022-09-06T20:24:20.781Z,51.83
2022-09-06T20:27:23.490Z,51.64
2022-09-06T20:30:26.274Z,51.52
2022-09-06T20:33:29.436Z,51.43
2022-09-06T20:36:32.537Z,51.78
2022-09-06T20:39:35.269Z,51.74
2022-09-06T20:42:41.634Z,51.62
2022-09-06T20:45:46.217Z,51.60
2022-09-06T20:48:49.545Z,52.08
2022-09-06T20:51:52.225Z,52.50
2022-09-06T20:54:54.935Z,52.62
2022-09-06T20:57:57.644Z,53.06
2022-09-06T21:01:05.345Z,53.33
2022-09-06T21:04:09.120Z,53.25
2022-09-06T21:07:11.755Z,53.44
2022-09-06T21:10:14.564Z,53.83
2022-09-06T21:13:17.389Z,53.77
2022-09-06T21:16:24.676Z,53.67
2022-09-06T21:19:27.778Z,53.91
2022-09-06T21:22:30.512Z,53.60
2022-09-06T21:25:33.211Z,53.80
2022-09-06T21:28:37.008Z,54.40
2022-09-06T21:31:40.298Z,54.00
2022-09-06T21:34:42.928Z,54.41
2022-09-06T21:37:45.661Z,54.44
2022-09-06T21:40:48.374Z,54.79
2022-09-06T21:43:52.557Z,54.62
2022-09-06T21:46:56.053Z,55.36
2022-09-06T21:49:58.819Z,55.54
2022-09-06T21:53:01.533Z,55.19
2022-09-06T21:56:04.831Z,55.72
2022-09-06T21:59:08.030Z,55.84
2022-09-06T22:02:11.239Z,55.72
2022-09-06T22:05:14.513Z,56.30
2022-09-06T22:08:17.745Z,56.07
2022-09-06T22:11:21.847Z,56.16
2022-09-06T22:14:24.579Z,56.35
2022-09-06T22:17:27.282Z,57.17
2022-09-06T22:20:29.959Z,56.84
2022-09-06T22:23:33.105Z,56.49
2022-09-06T22:26:37.031Z,56.79
2022-09-06T22:29:40.174Z,56.57
2022-09-06T22:32:42.875Z,57.00
2022-09-06T22:35:45.424Z,57.22
2022-09-06T22:38:47.957Z,57.74
2022-09-06T22:41:50.580Z,57.60
2022-09-06T22:44:53.458Z,58.29
2022-09-06T22:47:56.132Z,57.99
2022-09-06T22:50:58.776Z,58.10
2022-09-06T22:54:01.828Z,58.09
2022-09-06T22:57:04.508Z,58.35
2022-09-06T23:00:08.580Z,58.63
2022-09-06T23:03:11.585Z,58.59
2022-09-06T23:06:14.467Z,58.60
2022-09-06T23:09:17.199Z,59.14
2022-09-06T23:12:19.884Z,59.04
2022-09-06T23:15:22.646Z,59.31
2022-09-06T23:18:25.665Z,59.23
2022-09-06T23:21:28.224Z,59.51
2022-09-06T23:24:30.932Z,59.55
2022-09-06T23:27:33.648Z,59.36
2022-09-06T23:30:37.324Z,59.72
2022-09-06T23:33:41.158Z,59.99
2022-09-06T23:36:44.686Z,59.73
2022-09-06T23:39:47.491Z,59.54
2022-09-06T23:42:50.123Z,59.78
2022-09-06T23:45:52.787Z,60.00
2022-09-06T23:48:55.355Z,60.07
2022-09-06T23:51:57.933Z,60.47
2022-09-06T23:55:00.568Z,60.44
2022-09-06T23:58:03.148Z,60.29
